createdAt,value
2022-08-12T00:00:51.795Z,19.30
2022-08-12T00:04:17.227Z,19.27
2022-08-12T00:07:25.723Z,19.19
2022-08-12T00:10:33.514Z,19.18
2022-08-12T00:13:58.437Z,19.14
2022-08-12T00:17:07.738Z,19.13
2022-08-12T00:23:45.320Z,19.08
2022-08-12T00:27:06.028Z,19.03
2022-08-12T00:30:14.063Z,19.00
2022-08-12T00:33:04.140Z,18.96
2022-08-12T00:35:54.698Z,18.94
2022-08-12T00:39:04.714Z,18.90
2022-08-12T00:41:55.471Z,18.87
2022-08-12T00:45:02.269Z,18.86
2022-08-12T00:48:11.703Z,18.79
2022-08-12T00:51:02.735Z,18.70
2022-08-12T00:53:53.146Z,18.62
2022-08-12T00:57:37.343Z,18.56
2022-08-12T01:00:27.258Z,18.53
2022-08-12T01:03:18.709Z,18.55
2022-08-12T01:06:11.089Z,18.57
2022-08-12T01:15:53.111Z,18.52
2022-08-12T01:19:18.541Z,18.51
2022-08-12T01:22:34.062Z,18.51
2022-08-12T01:25:29.677Z,18.54
2022-08-12T01:28:21.774Z,18.52
2022-08-12T01:30:55.545Z,18.53
2022-08-12T01:33:47.721Z,18.47
2022-08-12T01:36:23.782Z,18.41
2022-08-12T01:49:13.869Z,18.33
2022-08-12T01:52:25.695Z,18.31
2022-08-12T01:59:19.298Z,18.15
2022-08-12T02:02:16.975Z,18.07
2022-08-12T02:05:43.901Z,17.99
2022-08-12T02:09:01.397Z,17.94
2022-08-12T02:12:13.853Z,17.94
2022-08-12T02:15:42.347Z,17.84
2022-08-12T02:18:43.684Z,17.77
2022-08-12T02:21:39.966Z,17.72
2022-08-12T02:27:45.771Z,17.65
2022-08-12T02:37:50.858Z,17.61
2022-08-12T02:44:28.407Z,17.57
2022-08-12T02:47:59.770Z,17.56
2022-08-12T03:06:15.947Z,17.29
2022-08-12T03:09:09.356Z,17.30
2022-08-12T03:11:49.956Z,17.31
2022-08-12T03:15:00.786Z,17.32
2022-08-12T03:18:24.938Z,17.27
2022-08-12T03:28:38.733Z,17.28
2022-08-12T03:31:47.152Z,17.22
2022-08-12T03:34:56.101Z,17.21
2022-08-12T03:37:46.160Z,17.24
2022-08-12T03:47:02.750Z,17.42
2022-08-12T03:49:53.395Z,17.46
2022-08-12T03:52:43.101Z,17.46
2022-08-12T03:55:50.712Z,17.44
2022-08-12T04:05:21.443Z,17.53
2022-08-12T04:08:14.734Z,17.59
2022-08-12T04:11:21.735Z,17.60
2022-08-12T04:18:06.666Z,17.67
2022-08-12T04:20:59.135Z,17.71
2022-08-12T04:26:42.749Z,17.73
2022-08-12T04:30:31.511Z,17.77
2022-08-12T04:33:01.913Z,17.79
2022-08-12T04:35:51.723Z,17.78
2022-08-12T04:38:24.585Z,17.76
2022-08-12T04:41:14.028Z,17.81
2022-08-12T04:44:03.857Z,17.86
2022-08-12T04:50:41.217Z,18.10
2022-08-12T04:53:41.372Z,18.25
2022-08-12T04:56:13.845Z,18.34
2022-08-12T05:02:30.983Z,18.46
2022-08-12T05:05:23.484Z,18.55
2022-08-12T05:15:19.751Z,18.70
2022-08-12T05:18:19.538Z,18.71
2022-08-12T05:21:29.469Z,18.77
2022-08-12T05:24:02.422Z,18.86
2022-08-12T05:26:52.100Z,18.97
2022-08-12T05:30:07.866Z,19.20
2022-08-12T05:33:10.494Z,19.53
2022-08-12T05:35:44.605Z,19.66
2022-08-12T05:38:52.674Z,19.94
2022-08-12T05:49:08.327Z,22.33
2022-08-12T05:51:59.311Z,22.57
2022-08-12T05:54:56.241Z,22.65
2022-08-12T05:57:23.722Z,22.76
2022-08-12T06:00:32.001Z,22.79
2022-08-12T06:06:39.141Z,23.28
2022-08-12T06:16:24.415Z,23.27
2022-08-12T06:19:13.788Z,23.28
2022-08-12T06:21:49.011Z,23.85
2022-08-12T06:28:22.871Z,25.99
2022-08-12T06:35:23.705Z,27.81
2022-08-12T06:37:32.812Z,28.78
2022-08-12T06:40:41.656Z,28.99
2022-08-12T06:44:06.307Z,29.32
2022-08-12T06:46:25.840Z,29.78
2022-08-12T06:49:19.240Z,29.49
2022-08-12T06:55:58.321Z,29.56
2022-08-12T06:59:23.620Z,29.80
2022-08-12T07:02:14.360Z,30.23
2022-08-12T07:05:05.542Z,30.79
2022-08-12T07:07:56.051Z,31.44
2022-08-12T07:10:46.530Z,31.83
2022-08-12T07:16:53.734Z,32.51
2022-08-12T07:22:34.717Z,32.43
2022-08-12T07:29:07.448Z,33.07
2022-08-12T07:35:07.394Z,32.90
2022-08-12T07:38:15.845Z,32.66
2022-08-12T07:41:05.653Z,32.55
2022-08-12T07:43:58.268Z,32.51
2022-08-12T07:46:51.112Z,32.30
2022-08-12T07:49:24.748Z,32.04
2022-08-12T07:52:15.300Z,31.73
2022-08-12T07:55:08.589Z,31.52
2022-08-12T07:58:33.339Z,31.21
2022-08-12T08:02:04.257Z,31.52
2022-08-12T08:05:29.460Z,31.81
2022-08-12T08:08:40.434Z,32.42
2022-08-12T08:11:48.824Z,33.19
2022-08-12T08:17:47.620Z,33.59
2022-08-12T08:20:39.676Z,33.43
2022-08-12T08:26:42.974Z,32.45
2022-08-12T08:29:49.986Z,32.10
2022-08-12T08:35:49.173Z,31.03
2022-08-12T08:38:58.251Z,31.08
2022-08-12T08:42:14.031Z,31.24
2022-08-12T08:45:13.073Z,31.15
2022-08-12T08:48:02.594Z,31.29
2022-08-12T08:51:10.557Z,31.04
2022-08-12T08:54:00.077Z,31.23
2022-08-12T08:57:08.562Z,31.44
2022-08-12T09:05:07.545Z,31.02
2022-08-12T09:06:38.139Z,31.41
2022-08-12T09:09:34.008Z,31.64
2022-08-12T09:15:55.843Z,31.38
2022-08-12T09:18:47.788Z,31.77
2022-08-12T09:22:00.562Z,32.32
2022-08-12T09:25:11.087Z,32.91
2022-08-12T09:32:03.696Z,33.77
2022-08-12T09:34:55.255Z,33.39
2022-08-12T09:37:58.379Z,33.42
2022-08-12T09:41:02.234Z,32.81
2022-08-12T09:44:38.915Z,32.30
2022-08-12T09:47:46.188Z,32.14
2022-08-12T09:53:36.127Z,32.27
2022-08-12T10:03:06.900Z,32.97
2022-08-12T10:06:27.871Z,33.34
2022-08-12T10:08:54.515Z,33.84
2022-08-12T10:12:31.109Z,33.12
2022-08-12T10:15:05.589Z,32.47
2022-08-12T10:18:06.332Z,32.61
2022-08-12T10:20:31.779Z,32.93
2022-08-12T10:27:08.503Z,33.37
2022-08-12T10:40:09.826Z,33.85
2022-08-12T10:43:54.401Z,34.25
2022-08-12T10:50:29.579Z,33.31
2022-08-12T10:53:44.242Z,32.45
2022-08-12T10:56:21.813Z,31.89
2022-08-12T10:59:13.669Z,31.38
2022-08-12T11:04:16.743Z,31.02
2022-08-12T11:04:59.039Z,30.85
2022-08-12T11:08:36.414Z,30.90
2022-08-12T11:12:36.728Z,31.00
2022-08-12T11:24:51.601Z,32.54
2022-08-12T11:30:50.943Z,33.25
2022-08-12T11:34:05.425Z,34.13
2022-08-12T11:36:53.535Z,34.46
2022-08-12T11:40:03.609Z,34.25
2022-08-12T11:42:53.234Z,33.24
2022-08-12T11:55:05.956Z,32.52
2022-08-12T12:02:02.458Z,33.95
2022-08-12T12:04:12.166Z,34.59
2022-08-12T12:07:07.423Z,34.85
2022-08-12T12:09:52.333Z,34.70
2022-08-12T12:12:49.676Z,34.79
2022-08-12T12:22:30.888Z,35.76
2022-08-12T12:26:08.376Z,36.24
2022-08-12T12:30:18.374Z,36.44
2022-08-12T12:33:18.023Z,36.65
2022-08-12T12:36:25.308Z,36.59
2022-08-12T12:39:55.838Z,36.07
2022-08-12T12:42:47.562Z,35.93
2022-08-12T12:45:59.086Z,35.26
2022-08-12T12:48:32.362Z,34.67
2022-08-12T12:51:49.345Z,34.63
2022-08-12T12:57:59.085Z,35.30
2022-08-12T13:00:51.176Z,35.52
2022-08-12T13:04:01.703Z,35.79
2022-08-12T13:06:53.538Z,35.80
2022-08-12T13:09:46.517Z,35.90
2022-08-12T13:27:40.003Z,33.33
2022-08-12T13:31:03.975Z,33.02
2022-08-12T13:34:32.422Z,32.61
2022-08-12T13:37:21.676Z,32.56
2022-08-12T13:40:20.147Z,32.45
2022-08-12T13:52:29.204Z,32.01
2022-08-12T13:58:18.112Z,31.80
2022-08-12T14:02:22.455Z,31.97
2022-08-12T14:05:37.518Z,31.96
2022-08-12T14:08:34.609Z,31.95
2022-08-12T14:30:28.995Z,30.89
2022-08-12T14:34:13.926Z,30.62
2022-08-12T14:37:57.695Z,30.61
2022-08-12T14:40:55.634Z,30.59
2022-08-12T14:44:04.962Z,30.61
2022-08-12T14:46:59.835Z,30.58
2022-08-12T14:50:33.417Z,30.51
2022-08-12T14:54:52.882Z,30.44
2022-08-12T14:57:19.081Z,30.41
2022-08-12T15:03:19.219Z,30.41
2022-08-12T15:06:39.824Z,30.67
2022-08-12T15:09:16.027Z,30.71
2022-08-12T15:12:25.310Z,30.67
2022-08-12T15:15:45.466Z,30.79
2022-08-12T15:18:50.578Z,30.87
2022-08-12T15:25:39.941Z,30.94
2022-08-12T15:28:38.221Z,30.96
2022-08-12T15:35:01.057Z,30.81
2022-08-12T15:38:30.690Z,30.83
2022-08-12T15:41:16.627Z,30.69
2022-08-12T15:44:36.536Z,30.61
2022-08-12T15:47:26.785Z,30.51
2022-08-12T15:50:30.254Z,30.51
2022-08-12T15:53:14.322Z,30.60
2022-08-12T15:56:17.621Z,30.53
2022-08-12T15:58:53.475Z,30.34
2022-08-12T16:01:35.460Z,30.27
2022-08-12T16:04:12.769Z,30.26
2022-08-12T16:10:06.237Z,30.22
2022-08-12T16:13:05.024Z,30.23
2022-08-12T16:15:42.271Z,30.17
2022-08-12T16:18:26.143Z,30.20
2022-08-12T16:21:52.718Z,30.27
2022-08-12T16:32:14.975Z,30.05
2022-08-12T16:42:04.892Z,29.53
2022-08-12T16:44:45.724Z,29.26
2022-08-12T16:47:58.905Z,29.02
2022-08-12T16:53:54.856Z,28.86
2022-08-12T16:59:30.967Z,28.68
2022-08-12T17:02:44.940Z,28.60
2022-08-12T17:12:16.087Z,28.18
2022-08-12T17:14:52.982Z,28.09
2022-08-12T17:17:38.981Z,28.03
2022-08-12T17:20:35.409Z,27.97
2022-08-12T17:23:33.438Z,27.93
2022-08-12T17:30:09.232Z,27.74
2022-08-12T17:33:24.854Z,27.67
2022-08-12T17:36:33.120Z,27.41
2022-08-12T17:40:06.721Z,27.32
2022-08-12T17:42:47.892Z,27.10
2022-08-12T17:46:00.033Z,27.01
2022-08-12T17:48:57.832Z,26.95
2022-08-12T17:51:49.965Z,26.81
2022-08-12T17:58:17.217Z,26.64
2022-08-12T18:05:23.135Z,26.36
2022-08-12T18:08:38.670Z,26.25
2022-08-12T18:12:04.009Z,26.09
2022-08-12T18:16:03.277Z,25.96
2022-08-12T18:18:32.852Z,25.85
2022-08-12T18:22:01.076Z,25.78
2022-08-12T18:26:13.386Z,25.69
2022-08-12T18:35:46.892Z,25.40
2022-08-12T18:38:51.175Z,25.34
2022-08-12T18:45:03.987Z,25.20
2022-08-12T18:51:45.933Z,25.05
2022-08-12T18:54:49.404Z,25.02
2022-08-12T19:02:19.199Z,24.90
2022-08-12T19:05:08.209Z,24.80
2022-08-12T19:12:20.760Z,24.67
2022-08-12T19:15:54.457Z,24.60
2022-08-12T19:19:07.885Z,24.54
2022-08-12T19:22:28.921Z,24.49
2022-08-12T19:26:42.218Z,24.44
2022-08-12T19:30:08.899Z,24.49
2022-08-12T19:33:21.178Z,24.43
2022-08-12T19:37:04.358Z,24.40
2022-08-12T19:40:09.045Z,24.42
2022-08-12T19:43:59.200Z,24.44
2022-08-12T19:47:47.685Z,24.45
2022-08-12T19:50:50.602Z,24.38
2022-08-12T19:54:23.377Z,24.35
2022-08-12T19:57:42.538Z,24.23
2022-08-12T20:01:20.737Z,24.01
2022-08-12T20:07:56.841Z,23.91
2022-08-12T20:12:11.962Z,23.88
2022-08-12T20:14:57.387Z,23.92
2022-08-12T20:21:16.176Z,24.03
2022-08-12T20:24:01.499Z,24.03
2022-08-12T20:27:28.727Z,23.98
2022-08-12T20:30:53.472Z,23.86
2022-08-12T20:38:06.480Z,23.58
2022-08-12T20:40:47.881Z,23.59
2022-08-12T20:43:42.129Z,23.65
2022-08-12T20:46:23.812Z,23.70
2022-08-12T20:49:36.476Z,23.68
2022-08-12T20:52:19.849Z,23.67
2022-08-12T20:58:22.432Z,23.60
2022-08-12T21:07:14.343Z,23.51
2022-08-12T21:19:02.423Z,23.39
2022-08-12T21:22:24.377Z,23.46
2022-08-12T21:25:51.736Z,23.49
2022-08-12T21:28:58.382Z,23.44
2022-08-12T21:32:37.940Z,23.37
2022-08-12T21:41:20.401Z,23.20
2022-08-12T21:45:47.299Z,23.11
2022-08-12T21:51:22.673Z,22.74
2022-08-12T21:57:48.064Z,21.90
2022-08-12T22:00:42.938Z,21.14
2022-08-12T22:04:04.040Z,20.64
2022-08-12T22:07:46.066Z,20.25
2022-08-12T22:10:44.371Z,19.91
2022-08-12T22:16:07.179Z,19.60
2022-08-12T22:19:15.523Z,19.24
2022-08-12T22:22:05.829Z,18.61
2022-08-12T22:28:03.132Z,18.11
2022-08-12T22:30:53.137Z,18.10
2022-08-12T22:34:00.742Z,18.14
2022-08-12T22:36:34.890Z,18.18
2022-08-12T22:39:08.867Z,18.06
2022-08-12T22:42:19.939Z,17.99
2022-08-12T22:45:56.269Z,17.96
2022-08-12T22:52:00.795Z,18.01
2022-08-12T22:54:37.481Z,17.92
2022-08-12T22:58:12.599Z,17.81
2022-08-12T23:01:05.920Z,17.83
2022-08-12T23:03:55.716Z,17.85
2022-08-12T23:06:48.941Z,17.88
2022-08-12T23:10:17.708Z,17.85
2022-08-12T23:13:09.124Z,17.85
2022-08-12T23:15:47.709Z,17.86
2022-08-12T23:18:29.915Z,17.85
2022-08-12T23:22:05.498Z,17.90
2022-08-12T23:28:29.864Z,17.98
2022-08-12T23:32:01.843Z,18.00
2022-08-12T23:35:09.714Z,17.99
2022-08-12T23:38:09.910Z,18.07
2022-08-12T23:45:03.913Z,18.02
2022-08-12T23:48:31.319Z,18.06
2022-08-12T23:51:21.485Z,17.94
2022-08-12T23:57:21.626Z,17.79
